African Highway — 3EOD8 — position and weather

sailwx.info

Track history (hours):
 
Tides and Currents Weather Stations Pressure Air Temp Water Temp Dewpoint Dewpoint Depression Visibility Wind Speed Wind Dir Waves Ship Positions

African Highway

Last reported at 2015-Mar-27 16:33 UTC. Time now 2015-Mar-27 17:22 UTC.
Position N 53°19' E 007°02'.

Length 154.5 m; beam 27.6 m.

Type: Cargo ship. MMSI: 353633000.

Date/timePositionNaut miles runAvg speedWind from/ knotsBaromVisibWave heightAir tempDewpointWater temp
2015-Mar-27 16:33N 53°19' E 007°02'6 5.6
2015-Mar-27 15:33N 53°20' E 007°11'0 0.5
2015-Mar-27 14:29N 53°21' E 007°12'0 0.0
2015-Mar-27 13:32N 53°21' E 007°12'0 0.0
2015-Mar-27 12:32N 53°21' E 007°12'0 0.0
2015-Mar-27 11:32N 53°21' E 007°12'0 0.0
2015-Mar-27 10:20N 53°21' E 007°12'0 0.0
2015-Mar-27 09:23N 53°21' E 007°12'0 0.0
2015-Mar-27 08:32N 53°21' E 007°12'0 0.0
2015-Mar-27 07:32N 53°21' E 007°12'0 0.0
2015-Mar-27 06:32N 53°21' E 007°12'0 0.0
2015-Mar-27 05:32N 53°21' E 007°12'0 0.0
2015-Mar-27 04:23N 53°21' E 007°12'0 0.6
2015-Mar-27 03:33N 53°20' E 007°11'7 6.5
2015-Mar-27 02:34N 53°20' E 007°01'1515.2
2015-Mar-27 01:33N 53°32' E 006°45'1615.7
2015-Mar-27 00:34N 53°37' E 006°20'1010.0
2015-Mar-26 23:33N 53°38' E 006°03'1212.4
2015-Mar-26 22:33N 53°47' E 005°49'1616.3
2015-Mar-26 21:33N 53°52' E 005°23'1616.5
2015-Mar-26 20:33N 53°57' E 004°56'14715.6
2015-Mar-26 11:11N 53°36' E 000°50'1015.9
2015-Mar-26 10:33N 53°33' E 000°34'1413.9
2015-Mar-26 09:33N 53°32' E 000°11'9 8.8
2015-Mar-26 08:34N 53°35' W 000°04'0 0.2
2015-Mar-26 07:33N 53°35' W 000°04'0 0.0
2015-Mar-26 06:33N 53°35' W 000°04'0 0.0
2015-Mar-26 05:33N 53°35' W 000°04'0 0.0
2015-Mar-26 04:33N 53°35' W 000°04'0 0.0
2015-Mar-26 03:33N 53°35' W 000°04'0 0.0
2015-Mar-26 02:33N 53°35' W 000°04'0 0.0
2015-Mar-26 01:33N 53°35' W 000°04'0 0.0
2015-Mar-26 00:33N 53°35' W 000°04'0 0.0
2015-Mar-25 23:33N 53°35' W 000°04'0 0.0
2015-Mar-25 22:33N 53°35' W 000°04'0 0.0
2015-Mar-25 21:30N 53°35' W 000°04'1 1.0
2015-Mar-25 20:33N 53°35' W 000°02'1010.1
2015-Mar-25 19:33N 53°33' E 000°14'7 6.5
2015-Mar-25 18:33N 53°33' E 000°25'3 3.4
2015-Mar-25 17:33N 53°37' E 000°27'0 0.1
2015-Mar-25 16:31N 53°37' E 000°27'0 0.1
2015-Mar-25 15:28N 53°37' E 000°27'0 0.0
2015-Mar-25 14:28N 53°37' E 000°27'0 0.0
2015-Mar-25 13:31N 53°37' E 000°27'0 0.0
2015-Mar-25 12:31N 53°37' E 000°27'0 0.1
2015-Mar-25 11:31N 53°37' E 000°27'0 0.1
2015-Mar-25 10:31N 53°36' E 000°27'0 0.1
2015-Mar-25 09:32N 53°37' E 000°27'6 6.2
2015-Mar-25 08:33N 53°34' E 000°37'14415.5
2015-Mar-24 23:17N 54°03' E 004°35'1014.2
2015-Mar-24 22:33N 54°01' E 004°52'1414.1
2015-Mar-24 21:33N 53°56' E 005°14'1414.2
2015-Mar-24 20:33N 53°52' E 005°37'1414.0
2015-Mar-24 19:33N 53°46' E 005°59'1212.2
2015-Mar-24 18:33N 53°40' E 006°17'1212.1
2015-Mar-24 17:33N 53°36' E 006°36'1817.8
2015-Mar-24 16:33N 53°23' E 006°58'8 8.2
2015-Mar-24 15:33N 53°20' E 007°10'0 0.0
2015-Mar-24 14:33N 53°20' E 007°10'0 0.0
2015-Mar-24 13:33N 53°20' E 007°10'0 0.0
2015-Mar-24 12:30N 53°20' E 007°10'0 0.0
2015-Mar-24 11:33N 53°20' E 007°10'0 0.0
2015-Mar-24 10:33N 53°20' E 007°10'0 0.0
2015-Mar-24 09:27N 53°20' E 007°10'0 0.0
2015-Mar-24 08:30N 53°20' E 007°10'0 0.0
2015-Mar-24 07:33N 53°20' E 007°10'0 0.0
2015-Mar-24 06:33N 53°20' E 007°10'0 0.0
2015-Mar-24 04:33N 53°20' E 007°10'0 0.0
2015-Mar-24 03:33N 53°20' E 007°10'0 0.0
2015-Mar-24 02:18N 53°20' E 007°10'0 0.0
2015-Mar-24 01:27N 53°20' E 007°10'1 1.4
2015-Mar-24 00:33N 53°20' E 007°08'1010.1
2015-Mar-23 23:34N 53°26' E 006°55'1716.9
2015-Mar-23 22:33N 53°37' E 006°33'9 9.0
2015-Mar-23 21:33N 53°39' E 006°18'1716.8
2015-Mar-23 20:33N 53°38' E 005°50'1717.4
2015-Mar-23 19:33N 53°33' E 005°22'1817.5
2015-Mar-23 18:33N 53°27' E 004°54'1716.4
2015-Mar-23 17:30N 53°14' E 004°36'3616.9
2015-Mar-23 15:21N 52°43' E 004°03'1316.2
2015-Mar-23 14:32N 52°34' E 003°48'1515.6
2015-Mar-23 13:33N 52°23' E 003°30'2115.0
2015-Mar-23 12:09N 52°08' E 003°07'1114.4
2015-Mar-23 11:23N 51°59' E 002°55'2613.9
2015-Mar-23 09:33N 51°40' E 002°28'1414.0
2015-Mar-23 08:33N 51°29' E 002°14'1514.8
2015-Mar-23 07:33N 51°15' E 002°05'1515.0
2015-Mar-23 06:34N 51°06' E 001°46'1515.3
2015-Mar-23 05:33N 50°54' E 001°30'5114.5
2015-Mar-23 02:04N 50°23' E 000°27'26011.0
2015-Mar-22 02:33N 52°14' W 005°49'86 2.1
2015-Mar-20 10:05N 50°47' W 005°52'1215.3
2015-Mar-20 09:17N 50°35' W 005°52'9010.3
2015-Mar-20 00:33N 50°08' W 003°38'1717.4
2015-Mar-19 23:33N 50°11' W 003°11'1616.5
2015-Mar-19 22:34N 50°14' W 002°46'1515.0
2015-Mar-19 21:33N 50°17' W 002°22'1313.2
2015-Mar-19 20:33N 50°19' W 002°02'5212.7
2015-Mar-19 16:28N 50°26' W 000°41'1816.7
2015-Mar-19 15:22N 50°29' W 000°13'1417.0
2015-Mar-19 14:33N 50°31' E 000°09'1716.7
2015-Mar-19 13:33N 50°36' E 000°33'1615.9
2015-Mar-19 12:33N 50°45' E 000°54'1414.4
2015-Mar-19 11:34N 50°55' E 001°10'1312.9
2015-Mar-19 10:33N 51°04' E 001°25'1413.7
2015-Mar-19 09:34N 51°12' E 001°42'1615.9
2015-Mar-19 08:34N 51°26' E 001°55'1717.3
2015-Mar-19 07:34N 51°39' E 002°14'7915.7
2015-Mar-19 02:32N 52°41' E 003°34'1414.0
2015-Mar-19 01:33N 52°51' E 003°50'4715.6
2015-Mar-18 22:33N 53°27' E 004°38'1616.2
2015-Mar-18 21:33N 53°34' E 005°03'1515.5
2015-Mar-18 20:34N 53°39' E 005°27'1514.6
2015-Mar-18 19:34N 53°43' E 005°51'1313.1
2015-Mar-18 18:33N 53°46' E 006°13'1211.7
2015-Mar-18 17:31N 53°37' E 006°26'1111.5
2015-Mar-18 16:33N 53°32' E 006°43'1111.4
2015-Mar-18 15:33N 53°24' E 006°57'7 7.5
2015-Mar-18 14:33N 53°20' E 007°07'2 2.1
2015-Mar-18 13:32N 53°20' E 007°11'0 0.0
2015-Mar-18 12:32N 53°20' E 007°11'0 0.0
2015-Mar-18 11:32N 53°20' E 007°11'0 0.0
2015-Mar-18 10:32N 53°20' E 007°11'0 0.0
2015-Mar-18 09:29N 53°20' E 007°11'0 0.0
2015-Mar-18 08:29N 53°20' E 007°11'0 0.0
2015-Mar-18 07:32N 53°20' E 007°11'0 0.0
2015-Mar-18 06:29N 53°20' E 007°11'0 0.0
2015-Mar-18 05:32N 53°20' E 007°11'0 0.0
2015-Mar-18 04:29N 53°20' E 007°11'0 0.0
2015-Mar-18 03:29N 53°20' E 007°11'0 0.0
2015-Mar-18 02:32N 53°20' E 007°11'0 0.0
2015-Mar-18 01:29N 53°20' E 007°11'0 0.0
2015-Mar-18 00:32N 53°20' E 007°11'0 0.0
2015-Mar-17 23:32N 53°20' E 007°11'0 0.0
2015-Mar-17 22:32N 53°20' E 007°11'0 0.0
2015-Mar-17 21:32N 53°20' E 007°11'0 0.0
2015-Mar-17 20:29N 53°20' E 007°11'0 0.0
2015-Mar-17 19:32N 53°20' E 007°11'1 1.3
2015-Mar-17 18:33N 53°20' E 007°09'8 8.2
2015-Mar-17 17:33N 53°24' E 006°57'1312.7
2015-Mar-17 16:33N 53°33' E 006°42'  
Track history (hours):
 
Tides and Currents Weather Stations Pressure Air Temp Water Temp Dewpoint Dewpoint Depression Visibility Wind Speed Wind Dir Waves Ship Positions

African Highway

Last reported at 2015-Mar-27 16:33 UTC. Time now 2015-Mar-27 17:22 UTC.
Position N 53°19' E 007°02'.

Length 154.5 m; beam 27.6 m.

Type: Cargo ship. MMSI: 353633000.

Date/timePositionNaut miles runAvg speedWind from/ knotsBaromVisibWave heightAir tempDewpointWater temp
2015-Mar-27 16:33N 53°19' E 007°02'6 5.6
2015-Mar-27 15:33N 53°20' E 007°11'0 0.5
2015-Mar-27 14:29N 53°21' E 007°12'0 0.0
2015-Mar-27 13:32N 53°21' E 007°12'0 0.0
2015-Mar-27 12:32N 53°21' E 007°12'0 0.0
2015-Mar-27 11:32N 53°21' E 007°12'0 0.0
2015-Mar-27 10:20N 53°21' E 007°12'0 0.0
2015-Mar-27 09:23N 53°21' E 007°12'0 0.0
2015-Mar-27 08:32N 53°21' E 007°12'0 0.0
2015-Mar-27 07:32N 53°21' E 007°12'0 0.0
2015-Mar-27 06:32N 53°21' E 007°12'0 0.0
2015-Mar-27 05:32N 53°21' E 007°12'0 0.0
2015-Mar-27 04:23N 53°21' E 007°12'0 0.6
2015-Mar-27 03:33N 53°20' E 007°11'7 6.5
2015-Mar-27 02:34N 53°20' E 007°01'1515.2
2015-Mar-27 01:33N 53°32' E 006°45'1615.7
2015-Mar-27 00:34N 53°37' E 006°20'1010.0
2015-Mar-26 23:33N 53°38' E 006°03'1212.4
2015-Mar-26 22:33N 53°47' E 005°49'1616.3
2015-Mar-26 21:33N 53°52' E 005°23'1616.5
2015-Mar-26 20:33N 53°57' E 004°56'14715.6
2015-Mar-26 11:11N 53°36' E 000°50'1015.9
2015-Mar-26 10:33N 53°33' E 000°34'1413.9
2015-Mar-26 09:33N 53°32' E 000°11'9 8.8
2015-Mar-26 08:34N 53°35' W 000°04'0 0.2
2015-Mar-26 07:33N 53°35' W 000°04'0 0.0
2015-Mar-26 06:33N 53°35' W 000°04'0 0.0
2015-Mar-26 05:33N 53°35' W 000°04'0 0.0
2015-Mar-26 04:33N 53°35' W 000°04'0 0.0
2015-Mar-26 03:33N 53°35' W 000°04'0 0.0
2015-Mar-26 02:33N 53°35' W 000°04'0 0.0
2015-Mar-26 01:33N 53°35' W 000°04'0 0.0
2015-Mar-26 00:33N 53°35' W 000°04'0 0.0
2015-Mar-25 23:33N 53°35' W 000°04'0 0.0
2015-Mar-25 22:33N 53°35' W 000°04'0 0.0
2015-Mar-25 21:30N 53°35' W 000°04'1 1.0
2015-Mar-25 20:33N 53°35' W 000°02'1010.1
2015-Mar-25 19:33N 53°33' E 000°14'7 6.5
2015-Mar-25 18:33N 53°33' E 000°25'3 3.4
2015-Mar-25 17:33N 53°37' E 000°27'0 0.1
2015-Mar-25 16:31N 53°37' E 000°27'0 0.1
2015-Mar-25 15:28N 53°37' E 000°27'0 0.0
2015-Mar-25 14:28N 53°37' E 000°27'0 0.0
2015-Mar-25 13:31N 53°37' E 000°27'0 0.0
2015-Mar-25 12:31N 53°37' E 000°27'0 0.1
2015-Mar-25 11:31N 53°37' E 000°27'0 0.1
2015-Mar-25 10:31N 53°36' E 000°27'0 0.1
2015-Mar-25 09:32N 53°37' E 000°27'6 6.2
2015-Mar-25 08:33N 53°34' E 000°37'14415.5
2015-Mar-24 23:17N 54°03' E 004°35'1014.2
2015-Mar-24 22:33N 54°01' E 004°52'1414.1
2015-Mar-24 21:33N 53°56' E 005°14'1414.2
2015-Mar-24 20:33N 53°52' E 005°37'1414.0
2015-Mar-24 19:33N 53°46' E 005°59'1212.2
2015-Mar-24 18:33N 53°40' E 006°17'1212.1
2015-Mar-24 17:33N 53°36' E 006°36'1817.8
2015-Mar-24 16:33N 53°23' E 006°58'8 8.2
2015-Mar-24 15:33N 53°20' E 007°10'0 0.0
2015-Mar-24 14:33N 53°20' E 007°10'0 0.0
2015-Mar-24 13:33N 53°20' E 007°10'0 0.0
2015-Mar-24 12:30N 53°20' E 007°10'0 0.0
2015-Mar-24 11:33N 53°20' E 007°10'0 0.0
2015-Mar-24 10:33N 53°20' E 007°10'0 0.0
2015-Mar-24 09:27N 53°20' E 007°10'0 0.0
2015-Mar-24 08:30N 53°20' E 007°10'0 0.0
2015-Mar-24 07:33N 53°20' E 007°10'0 0.0
2015-Mar-24 06:33N 53°20' E 007°10'0 0.0
2015-Mar-24 04:33N 53°20' E 007°10'0 0.0
2015-Mar-24 03:33N 53°20' E 007°10'0 0.0
2015-Mar-24 02:18N 53°20' E 007°10'0 0.0
2015-Mar-24 01:27N 53°20' E 007°10'1 1.4
2015-Mar-24 00:33N 53°20' E 007°08'1010.1
2015-Mar-23 23:34N 53°26' E 006°55'1716.9
2015-Mar-23 22:33N 53°37' E 006°33'9 9.0
2015-Mar-23 21:33N 53°39' E 006°18'1716.8
2015-Mar-23 20:33N 53°38' E 005°50'1717.4
2015-Mar-23 19:33N 53°33' E 005°22'1817.5
2015-Mar-23 18:33N 53°27' E 004°54'1716.4
2015-Mar-23 17:30N 53°14' E 004°36'3616.9
2015-Mar-23 15:21N 52°43' E 004°03'1316.2
2015-Mar-23 14:32N 52°34' E 003°48'1515.6
2015-Mar-23 13:33N 52°23' E 003°30'2115.0
2015-Mar-23 12:09N 52°08' E 003°07'1114.4
2015-Mar-23 11:23N 51°59' E 002°55'2613.9
2015-Mar-23 09:33N 51°40' E 002°28'1414.0
2015-Mar-23 08:33N 51°29' E 002°14'1514.8
2015-Mar-23 07:33N 51°15' E 002°05'1515.0
2015-Mar-23 06:34N 51°06' E 001°46'1515.3
2015-Mar-23 05:33N 50°54' E 001°30'5114.5
2015-Mar-23 02:04N 50°23' E 000°27'26011.0
2015-Mar-22 02:33N 52°14' W 005°49'86 2.1
2015-Mar-20 10:05N 50°47' W 005°52'1215.3
2015-Mar-20 09:17N 50°35' W 005°52'9010.3
2015-Mar-20 00:33N 50°08' W 003°38'1717.4
2015-Mar-19 23:33N 50°11' W 003°11'1616.5
2015-Mar-19 22:34N 50°14' W 002°46'1515.0
2015-Mar-19 21:33N 50°17' W 002°22'1313.2
2015-Mar-19 20:33N 50°19' W 002°02'5212.7
2015-Mar-19 16:28N 50°26' W 000°41'1816.7
2015-Mar-19 15:22N 50°29' W 000°13'1417.0
2015-Mar-19 14:33N 50°31' E 000°09'1716.7
2015-Mar-19 13:33N 50°36' E 000°33'1615.9
2015-Mar-19 12:33N 50°45' E 000°54'1414.4
2015-Mar-19 11:34N 50°55' E 001°10'1312.9
2015-Mar-19 10:33N 51°04' E 001°25'1413.7
2015-Mar-19 09:34N 51°12' E 001°42'1615.9
2015-Mar-19 08:34N 51°26' E 001°55'1717.3
2015-Mar-19 07:34N 51°39' E 002°14'7915.7
2015-Mar-19 02:32N 52°41' E 003°34'1414.0
2015-Mar-19 01:33N 52°51' E 003°50'4715.6
2015-Mar-18 22:33N 53°27' E 004°38'1616.2
2015-Mar-18 21:33N 53°34' E 005°03'1515.5
2015-Mar-18 20:34N 53°39' E 005°27'1514.6
2015-Mar-18 19:34N 53°43' E 005°51'1313.1
2015-Mar-18 18:33N 53°46' E 006°13'1211.7
2015-Mar-18 17:31N 53°37' E 006°26'1111.5
2015-Mar-18 16:33N 53°32' E 006°43'1111.4
2015-Mar-18 15:33N 53°24' E 006°57'7 7.5
2015-Mar-18 14:33N 53°20' E 007°07'2 2.1
2015-Mar-18 13:32N 53°20' E 007°11'0 0.0
2015-Mar-18 12:32N 53°20' E 007°11'0 0.0
2015-Mar-18 11:32N 53°20' E 007°11'0 0.0
2015-Mar-18 10:32N 53°20' E 007°11'0 0.0
2015-Mar-18 09:29N 53°20' E 007°11'0 0.0
2015-Mar-18 08:29N 53°20' E 007°11'0 0.0
2015-Mar-18 07:32N 53°20' E 007°11'0 0.0
2015-Mar-18 06:29N 53°20' E 007°11'0 0.0
2015-Mar-18 05:32N 53°20' E 007°11'0 0.0
2015-Mar-18 04:29N 53°20' E 007°11'0 0.0
2015-Mar-18 03:29N 53°20' E 007°11'0 0.0
2015-Mar-18 02:32N 53°20' E 007°11'0 0.0
2015-Mar-18 01:29N 53°20' E 007°11'0 0.0
2015-Mar-18 00:32N 53°20' E 007°11'0 0.0
2015-Mar-17 23:32N 53°20' E 007°11'0 0.0
2015-Mar-17 22:32N 53°20' E 007°11'0 0.0
2015-Mar-17 21:32N 53°20' E 007°11'0 0.0
2015-Mar-17 20:29N 53°20' E 007°11'0 0.0
2015-Mar-17 19:32N 53°20' E 007°11'1 1.3
2015-Mar-17 18:33N 53°20' E 007°09'8 8.2
2015-Mar-17 17:33N 53°24' E 006°57'1312.7
2015-Mar-17 16:33N 53°33' E 006°42'  

Dump ship's entire track history